createdAt,value
2023-04-11T00:00:14.752Z,23.97
2023-04-11T00:02:42.147Z,23.10
2023-04-11T00:05:09.873Z,24.13
2023-04-11T00:07:37.351Z,25.87
2023-04-11T00:10:04.914Z,28.47
2023-04-11T00:12:32.226Z,27.20
2023-04-11T00:14:59.414Z,28.97
2023-04-11T00:17:31.276Z,28.80
2023-04-11T00:20:01.804Z,28.63
2023-04-11T00:22:30.709Z,26.20
2023-04-11T00:24:57.907Z,25.50
2023-04-11T00:27:25.419Z,26.20
2023-04-11T00:29:57.998Z,26.17
2023-04-11T00:32:25.541Z,26.27
2023-04-11T00:34:52.760Z,27.87
2023-04-11T00:37:23.135Z,27.17
2023-04-11T00:39:54.274Z,29.73
2023-04-11T00:42:21.463Z,26.87
2023-04-11T00:44:50.215Z,26.57
2023-04-11T00:47:19.787Z,26.40
2023-04-11T00:49:46.991Z,25.30
2023-04-11T00:52:14.198Z,24.40
2023-04-11T00:54:41.510Z,23.57
2023-04-11T00:57:08.837Z,24.60
2023-04-11T00:59:36.083Z,24.63
2023-04-11T01:02:03.389Z,23.70
2023-04-11T01:04:30.731Z,23.27
2023-04-11T01:07:04.261Z,22.97
2023-04-11T01:09:32.997Z,22.80
2023-04-11T01:12:01.593Z,22.43
2023-04-11T01:14:29.728Z,22.63
2023-04-11T01:16:57.290Z,22.73
2023-04-11T01:19:26.292Z,23.10
2023-04-11T01:21:54.207Z,23.33
2023-04-11T01:24:21.516Z,23.67
2023-04-11T01:26:48.799Z,22.30
2023-04-11T01:29:16.330Z,22.40
2023-04-11T01:31:43.827Z,22.00
2023-04-11T01:34:13.402Z,22.53
2023-04-11T01:36:41.609Z,23.63
2023-04-11T01:39:08.966Z,22.23
2023-04-11T01:41:36.182Z,22.40
2023-04-11T01:44:04.167Z,22.20
2023-04-11T01:46:31.990Z,21.33
2023-04-11T01:49:03.750Z,21.70
2023-04-11T01:51:31.524Z,22.27
2023-04-11T01:53:58.694Z,22.03
2023-04-11T01:56:26.069Z,22.37
2023-04-11T01:58:53.631Z,22.80
2023-04-11T02:01:21.651Z,22.07
2023-04-11T02:03:49.152Z,23.43
2023-04-11T02:06:17.051Z,22.40
2023-04-11T02:08:44.831Z,21.07
2023-04-11T02:11:12.364Z,22.37
2023-04-11T02:13:39.558Z,22.93
2023-04-11T02:16:11.763Z,26.17
2023-04-11T02:18:39.092Z,26.07
2023-04-11T02:21:06.905Z,23.90
2023-04-11T02:23:34.435Z,22.67
2023-04-11T02:26:02.235Z,22.53
2023-04-11T02:28:29.853Z,23.60
2023-04-11T02:30:57.177Z,21.67
2023-04-11T02:33:24.421Z,22.73
2023-04-11T02:35:51.839Z,22.60
2023-04-11T02:38:19.117Z,22.37
2023-04-11T02:40:46.785Z,22.57
2023-04-11T02:43:14.049Z,22.80
2023-04-11T02:45:41.349Z,22.23
2023-04-11T02:48:08.571Z,21.77
2023-04-11T02:50:36.147Z,20.53
2023-04-11T02:53:03.476Z,22.27
2023-04-11T02:55:30.704Z,21.13
2023-04-11T02:57:58.552Z,22.70
2023-04-11T03:00:26.241Z,22.30
2023-04-11T03:02:56.514Z,22.50
2023-04-11T03:05:23.865Z,23.33
2023-04-11T03:07:51.295Z,24.07
2023-04-11T03:10:18.541Z,22.37
2023-04-11T03:12:45.992Z,22.50
2023-04-11T03:15:15.515Z,23.10
2023-04-11T03:17:42.884Z,23.67
2023-04-11T03:20:13.781Z,23.67
2023-04-11T03:22:41.108Z,22.47
2023-04-11T03:25:08.714Z,23.33
2023-04-11T03:27:35.968Z,23.37
2023-04-11T03:30:03.789Z,23.07
2023-04-11T03:32:31.401Z,23.10
2023-04-11T03:35:01.942Z,23.07
2023-04-11T03:37:29.238Z,23.50
2023-04-11T03:39:56.408Z,23.23
2023-04-11T03:42:23.732Z,23.97
2023-04-11T03:44:57.162Z,23.60
2023-04-11T03:47:24.413Z,25.33
2023-04-11T03:49:51.936Z,25.47
2023-04-11T03:52:19.298Z,25.40
2023-04-11T03:54:47.796Z,22.83
2023-04-11T03:57:15.546Z,23.87
2023-04-11T03:59:42.711Z,23.07
2023-04-11T04:02:09.988Z,22.07
2023-04-11T04:04:38.504Z,22.40
2023-04-11T04:07:05.871Z,20.93
2023-04-11T04:09:33.234Z,21.67
2023-04-11T04:12:01.776Z,23.17
2023-04-11T04:14:29.006Z,22.77
2023-04-11T04:16:56.216Z,21.83
2023-04-11T04:19:23.471Z,22.30
2023-04-11T04:21:50.721Z,21.90
2023-04-11T04:24:17.964Z,23.50
2023-04-11T04:26:46.070Z,22.47
2023-04-11T04:29:13.288Z,22.17
2023-04-11T04:31:41.198Z,21.87
2023-04-11T04:34:11.700Z,22.37
2023-04-11T04:36:49.149Z,21.50
2023-04-11T04:39:19.824Z,21.60
2023-04-11T04:41:58.316Z,23.00
2023-04-11T04:44:25.765Z,22.23
2023-04-11T04:46:56.097Z,20.43
2023-04-11T04:49:23.654Z,21.60
2023-04-11T04:51:50.869Z,22.67
2023-04-11T04:54:19.428Z,22.23
2023-04-11T04:56:48.338Z,21.90
2023-04-11T04:59:16.368Z,21.73
2023-04-11T05:01:44.407Z,20.63
2023-04-11T05:04:12.089Z,21.67
2023-04-11T05:06:39.486Z,21.63
2023-04-11T05:09:06.676Z,21.53
2023-04-11T05:11:34.120Z,21.47
2023-04-11T05:14:01.333Z,21.73
2023-04-11T05:16:28.593Z,21.00
2023-04-11T05:18:56.000Z,22.43
2023-04-11T05:21:24.342Z,21.50
2023-04-11T05:23:51.530Z,23.17
2023-04-11T05:26:18.884Z,21.37
2023-04-11T05:28:46.097Z,21.43
2023-04-11T05:31:13.280Z,21.10
2023-04-11T05:33:42.199Z,22.27
2023-04-11T05:36:14.336Z,21.83
2023-04-11T05:38:42.145Z,20.97
2023-04-11T05:41:09.831Z,22.10
2023-04-11T05:43:37.213Z,21.77
2023-04-11T05:46:04.834Z,22.37
2023-04-11T05:48:32.086Z,23.83
2023-04-11T05:50:59.326Z,22.83
2023-04-11T05:53:26.567Z,22.57
2023-04-11T05:55:53.751Z,22.90
2023-04-11T05:58:20.993Z,22.10
2023-04-11T06:00:49.760Z,21.83
2023-04-11T06:03:17.869Z,22.27
2023-04-11T06:05:45.121Z,22.50
2023-04-11T06:08:12.395Z,22.37
2023-04-11T06:10:39.643Z,23.43
2023-04-11T06:13:06.980Z,22.13
2023-04-11T06:15:34.328Z,21.40
2023-04-11T06:18:01.724Z,21.90
2023-04-11T06:20:29.106Z,21.50
2023-04-11T06:22:57.077Z,21.87
2023-04-11T06:25:24.816Z,22.63
2023-04-11T06:27:52.097Z,21.10
2023-04-11T06:30:19.256Z,20.83
2023-04-11T06:32:46.578Z,22.13
2023-04-11T06:35:13.797Z,20.97
2023-04-11T06:37:42.432Z,22.70
2023-04-11T06:40:10.061Z,21.03
2023-04-11T06:42:37.315Z,21.87
2023-04-11T06:45:06.289Z,21.37
2023-04-11T06:47:33.806Z,20.23
2023-04-11T06:50:01.061Z,19.83
2023-04-11T06:52:28.441Z,21.43
2023-04-11T06:54:55.864Z,21.63
2023-04-11T06:57:23.130Z,19.47
2023-04-11T06:59:50.598Z,20.10
2023-04-11T07:02:17.886Z,20.40
2023-04-11T07:04:45.293Z,19.47
2023-04-11T07:07:12.597Z,20.73
2023-04-11T07:09:39.867Z,19.43
2023-04-11T07:12:07.078Z,20.10
2023-04-11T07:14:34.270Z,19.97
2023-04-11T07:17:01.554Z,18.50
2023-04-11T07:19:28.884Z,17.60
2023-04-11T07:21:57.020Z,18.53
2023-04-11T07:24:24.209Z,19.30
2023-04-11T07:26:52.021Z,18.97
2023-04-11T07:29:19.250Z,17.90
2023-04-11T07:31:46.669Z,18.10
2023-04-11T07:34:13.991Z,19.10
2023-04-11T07:36:42.078Z,20.77
2023-04-11T07:39:12.288Z,19.00
2023-04-11T07:41:39.662Z,16.20
2023-04-11T07:44:07.466Z,17.10
2023-04-11T07:46:34.988Z,18.17
2023-04-11T07:49:02.197Z,18.03
2023-04-11T07:51:31.346Z,23.50
2023-04-11T07:53:58.642Z,20.03
2023-04-11T07:56:26.086Z,17.13
2023-04-11T07:58:53.273Z,16.83
2023-04-11T08:01:21.452Z,16.60
2023-04-11T08:03:48.773Z,17.73
2023-04-11T08:06:16.155Z,16.30
2023-04-11T08:08:43.330Z,15.13
2023-04-11T08:11:10.829Z,15.83
2023-04-11T08:13:38.083Z,16.37
2023-04-11T08:16:09.713Z,16.20
2023-04-11T08:18:37.465Z,15.97
2023-04-11T08:21:04.806Z,15.50
2023-04-11T08:23:31.987Z,14.48
2023-04-11T08:25:59.227Z,13.60
2023-04-11T08:28:26.572Z,15.25
2023-04-11T08:30:55.441Z,14.23
2023-04-11T08:33:26.186Z,15.20
2023-04-11T08:35:53.421Z,16.73
2023-04-11T08:38:21.366Z,16.97
2023-04-11T08:40:48.591Z,17.90
2023-04-11T08:43:15.945Z,18.33
2023-04-11T08:45:43.397Z,16.43
2023-04-11T08:48:12.451Z,16.15
2023-04-11T08:50:42.803Z,17.20
2023-04-11T08:53:10.675Z,16.80
2023-04-11T08:55:45.903Z,14.77
2023-04-11T08:58:13.366Z,15.60
2023-04-11T09:00:40.850Z,15.80
2023-04-11T09:03:09.262Z,15.02
2023-04-11T09:05:36.569Z,16.63
2023-04-11T09:08:06.447Z,17.10
2023-04-11T09:10:33.760Z,15.60
2023-04-11T09:13:02.191Z,16.83
2023-04-11T09:15:30.587Z,16.80
2023-04-11T09:18:00.659Z,15.63
2023-04-11T09:20:31.362Z,15.55
2023-04-11T09:22:59.128Z,15.07
2023-04-11T09:25:26.397Z,15.63
2023-04-11T09:28:09.937Z,15.20
2023-04-11T09:30:37.395Z,15.32
2023-04-11T09:33:31.708Z,16.40
2023-04-11T09:35:58.922Z,16.00
2023-04-11T09:38:33.840Z,17.80
2023-04-11T09:41:05.454Z,15.85
2023-04-11T09:43:51.889Z,17.33
2023-04-11T09:46:21.267Z,15.68
2023-04-11T09:48:49.205Z,16.17
2023-04-11T09:51:28.227Z,15.10
2023-04-11T09:54:03.702Z,15.80
2023-04-11T09:56:31.731Z,15.77
2023-04-11T09:59:00.580Z,14.75
2023-04-11T10:01:28.155Z,15.32
2023-04-11T10:03:57.210Z,14.75
2023-04-11T10:07:02.153Z,12.95
2023-04-11T10:09:30.043Z,14.48
2023-04-11T10:11:57.420Z,13.73
2023-04-11T10:14:41.368Z,13.07
2023-04-11T10:17:19.752Z,13.95
2023-04-11T10:19:49.282Z,13.95
2023-04-11T10:22:47.149Z,13.43
2023-04-11T10:25:18.475Z,13.90
2023-04-11T10:27:49.954Z,13.77
2023-04-11T10:30:17.389Z,14.07
2023-04-11T10:33:03.588Z,13.07
2023-04-11T10:35:31.076Z,11.50
2023-04-11T10:37:58.377Z,10.93
2023-04-11T10:40:27.247Z,10.60
2023-04-11T10:42:54.465Z,10.65
2023-04-11T10:45:32.364Z,11.27
2023-04-11T10:47:59.608Z,11.93
2023-04-11T10:50:26.892Z,11.85
2023-04-11T10:52:54.854Z,12.02
2023-04-11T10:55:22.860Z,11.48
2023-04-11T10:58:08.556Z,10.10
2023-04-11T11:00:50.706Z,8.00
2023-04-11T11:03:30.216Z,7.93
2023-04-11T11:06:03.582Z,6.68
2023-04-11T11:08:38.180Z,7.47
2023-04-11T11:11:08.989Z,7.53
2023-04-11T11:13:40.170Z,7.50
2023-04-11T11:16:08.206Z,6.93
2023-04-11T11:18:36.233Z,7.73
2023-04-11T11:21:03.820Z,7.50
2023-04-11T11:23:31.655Z,7.20
2023-04-11T11:26:00.257Z,6.93
2023-04-11T11:30:59.616Z,6.40
2023-04-11T11:33:27.357Z,6.80
2023-04-11T11:36:01.652Z,6.73
2023-04-11T11:38:30.355Z,6.97
2023-04-11T11:40:58.265Z,7.87
2023-04-11T11:43:27.497Z,7.33
2023-04-11T11:46:08.823Z,7.20
2023-04-11T11:48:36.594Z,7.90
2023-04-11T11:51:03.839Z,8.90
2023-04-11T11:53:31.253Z,8.17
2023-04-11T11:55:59.416Z,7.33
2023-04-11T11:58:27.313Z,7.40
2023-04-11T12:00:54.594Z,7.70
2023-04-11T12:03:23.975Z,6.60
2023-04-11T12:05:52.930Z,6.20
2023-04-11T12:08:22.165Z,6.97
2023-04-11T12:10:50.621Z,6.57
2023-04-11T12:13:22.357Z,6.37
2023-04-11T12:15:54.203Z,6.60
2023-04-11T12:18:22.446Z,6.63
2023-04-11T12:20:49.938Z,6.67
2023-04-11T12:23:17.326Z,7.43
2023-04-11T12:25:48.645Z,7.43
2023-04-11T12:28:16.746Z,7.57
2023-04-11T12:30:44.151Z,7.97
2023-04-11T12:33:15.152Z,7.30
2023-04-11T12:35:48.711Z,7.60
2023-04-11T12:38:17.857Z,8.60
2023-04-11T12:40:50.998Z,8.67
2023-04-11T12:43:21.527Z,8.43
2023-04-11T12:46:00.469Z,7.93
2023-04-11T12:48:47.772Z,6.57
2023-04-11T12:51:21.128Z,5.67
2023-04-11T12:53:48.961Z,6.43
2023-04-11T12:56:17.198Z,5.97
2023-04-11T12:59:39.511Z,5.67
2023-04-11T13:02:10.679Z,4.63
2023-04-11T13:04:38.033Z,3.37
2023-04-11T13:07:05.435Z,3.47
2023-04-11T13:09:32.684Z,3.00
2023-04-11T13:12:01.743Z,3.20
2023-04-11T13:14:29.066Z,2.83
2023-04-11T13:16:56.340Z,2.73
2023-04-11T13:19:23.815Z,3.00
2023-04-11T13:21:51.114Z,2.33
2023-04-11T13:24:18.329Z,2.53
2023-04-11T13:26:45.822Z,2.33
2023-04-11T13:29:13.195Z,2.50
2023-04-11T13:31:41.101Z,3.23
2023-04-11T13:34:34.968Z,3.00
2023-04-11T13:37:02.500Z,2.80
2023-04-11T13:39:29.875Z,2.63
2023-04-11T13:41:57.126Z,2.57
2023-04-11T13:44:24.343Z,2.60
2023-04-11T13:46:51.644Z,2.23
2023-04-11T13:49:19.002Z,2.73
2023-04-11T13:51:46.483Z,2.40
2023-04-11T13:54:13.740Z,2.23
2023-04-11T13:56:41.703Z,2.33
2023-04-11T13:59:09.122Z,2.60
2023-04-11T14:01:36.552Z,2.33
2023-04-11T14:04:04.302Z,3.67
2023-04-11T14:06:31.909Z,2.67
2023-04-11T14:08:59.124Z,2.37
2023-04-11T14:11:26.364Z,2.33
2023-04-11T14:13:53.665Z,2.93
2023-04-11T14:16:21.036Z,3.00
2023-04-11T14:18:48.323Z,2.63
2023-04-11T14:21:15.687Z,3.00
2023-04-11T14:23:42.880Z,3.67
2023-04-11T14:26:10.061Z,3.00
2023-04-11T14:28:37.423Z,3.10
2023-04-11T14:31:04.810Z,2.60
2023-04-11T14:33:32.354Z,3.10
2023-04-11T14:35:59.808Z,3.50
2023-04-11T14:38:27.022Z,3.50
2023-04-11T14:40:54.162Z,3.90
2023-04-11T14:43:21.353Z,3.83
2023-04-11T14:45:48.630Z,3.67
2023-04-11T14:48:16.335Z,3.70
2023-04-11T14:50:43.935Z,2.97
2023-04-11T14:53:11.277Z,4.37
2023-04-11T14:55:39.897Z,5.17
2023-04-11T14:58:07.530Z,3.80
2023-04-11T15:00:35.277Z,4.67
2023-04-11T15:03:03.366Z,6.07
2023-04-11T15:05:34.382Z,6.60
2023-04-11T15:08:02.364Z,6.17
2023-04-11T15:10:32.221Z,6.70
2023-04-11T15:12:59.683Z,5.77
2023-04-11T15:15:29.731Z,5.07
2023-04-11T15:18:29.348Z,4.43
2023-04-11T15:20:57.445Z,4.47
2023-04-11T15:23:25.321Z,4.80
2023-04-11T15:25:54.347Z,5.10
2023-04-11T15:28:25.106Z,7.23
2023-04-11T15:30:53.135Z,6.93
2023-04-11T15:33:24.038Z,6.30
2023-04-11T15:35:57.747Z,5.53
2023-04-11T15:38:26.168Z,6.00
2023-04-11T15:40:57.105Z,5.83
2023-04-11T15:43:24.827Z,6.37
2023-04-11T15:45:56.593Z,6.27
2023-04-11T15:48:23.802Z,7.20
2023-04-11T15:50:51.188Z,6.13
2023-04-11T15:53:21.485Z,5.10
2023-04-11T15:55:51.325Z,4.07
2023-04-11T15:58:18.653Z,3.97
2023-04-11T16:00:47.185Z,4.60
2023-04-11T16:03:16.648Z,6.03
2023-04-11T16:05:45.040Z,7.00
2023-04-11T16:08:12.255Z,5.90
2023-04-11T16:10:40.498Z,5.43
2023-04-11T16:13:11.014Z,4.83
2023-04-11T16:15:39.397Z,5.00
2023-04-11T16:18:06.844Z,5.17
2023-04-11T16:20:34.680Z,5.67
2023-04-11T16:23:02.042Z,4.10
2023-04-11T16:25:32.524Z,5.17
2023-04-11T16:27:59.873Z,5.23
2023-04-11T16:30:30.233Z,5.07
2023-04-11T16:32:57.503Z,5.07
2023-04-11T16:35:24.809Z,4.97
2023-04-11T16:37:52.369Z,3.97
2023-04-11T16:40:19.564Z,5.10
2023-04-11T16:42:46.699Z,5.03
2023-04-11T16:45:14.034Z,5.20
2023-04-11T16:47:45.047Z,5.13
2023-04-11T16:50:12.933Z,5.10
2023-04-11T16:52:40.674Z,6.27
2023-04-11T16:55:08.068Z,7.60
2023-04-11T16:57:35.704Z,6.13
2023-04-11T17:00:16.532Z,6.40
2023-04-11T17:02:43.893Z,3.40
2023-04-11T17:05:11.596Z,3.30
2023-04-11T17:07:38.878Z,3.37
2023-04-11T17:10:07.069Z,2.40
2023-04-11T17:12:34.213Z,2.60
2023-04-11T17:15:01.482Z,1.80
2023-04-11T17:17:28.732Z,1.73
2023-04-11T17:19:55.993Z,2.27
2023-04-11T17:22:23.313Z,2.77
2023-04-11T17:24:50.517Z,2.90
2023-04-11T17:27:17.693Z,2.60
2023-04-11T17:29:45.294Z,2.47
2023-04-11T17:32:12.546Z,2.53
2023-04-11T17:34:39.763Z,3.67
2023-04-11T17:37:06.921Z,3.80
2023-04-11T17:39:34.081Z,3.23
2023-04-11T17:42:01.352Z,3.03
2023-04-11T17:44:28.569Z,3.37
2023-04-11T17:46:56.666Z,3.83
2023-04-11T17:49:24.973Z,5.07
2023-04-11T17:51:59.146Z,3.50
2023-04-11T17:54:27.277Z,3.93
2023-04-11T17:56:54.865Z,4.17
2023-04-11T17:59:22.103Z,3.30
2023-04-11T18:01:49.428Z,3.23
2023-04-11T18:04:16.712Z,3.20
2023-04-11T18:06:46.138Z,3.90
2023-04-11T18:09:13.353Z,3.43
2023-04-11T18:11:42.053Z,4.40
2023-04-11T18:14:09.262Z,6.13
2023-04-11T18:16:38.754Z,7.30
2023-04-11T18:19:33.314Z,6.20
2023-04-11T18:22:01.414Z,6.03
2023-04-11T18:24:29.018Z,5.37
2023-04-11T18:26:57.214Z,5.17
2023-04-11T18:29:27.874Z,5.57
2023-04-11T18:32:19.865Z,6.20
2023-04-11T18:34:43.127Z,6.53
2023-04-11T18:37:10.348Z,5.57
2023-04-11T18:39:38.265Z,5.97
2023-04-11T18:42:05.482Z,5.33
2023-04-11T18:44:33.912Z,5.67
2023-04-11T18:49:30.168Z,5.43
2023-04-11T18:51:58.650Z,5.23
2023-04-11T18:54:25.905Z,5.30
2023-04-11T18:56:54.333Z,5.50
2023-04-11T18:59:24.851Z,4.37
2023-04-11T19:01:53.166Z,4.67
2023-04-11T19:04:20.885Z,4.60
2023-04-11T19:06:48.269Z,4.43
2023-04-11T19:09:15.469Z,4.27
2023-04-11T19:11:42.668Z,4.67
2023-04-11T19:14:10.633Z,5.40
2023-04-11T19:16:37.984Z,13.50
2023-04-11T19:19:05.804Z,12.07
2023-04-11T19:21:33.037Z,6.93
2023-04-11T19:24:00.588Z,5.97
2023-04-11T19:26:27.801Z,4.50
2023-04-11T19:28:55.632Z,4.33
2023-04-11T19:31:26.505Z,4.37
2023-04-11T19:33:53.805Z,4.27
2023-04-11T19:36:21.051Z,5.50
2023-04-11T19:38:48.256Z,5.57
2023-04-11T19:41:17.501Z,5.20
2023-04-11T19:43:55.017Z,5.03
2023-04-11T19:46:31.300Z,5.17
2023-04-11T19:49:38.320Z,4.73
2023-04-11T19:52:07.216Z,4.37
2023-04-11T19:54:41.672Z,4.10
2023-04-11T19:57:41.536Z,5.43
2023-04-11T20:00:34.288Z,5.40
2023-04-11T20:06:01.142Z,4.07
2023-04-11T20:08:43.104Z,4.00
2023-04-11T20:11:30.940Z,3.90
2023-04-11T20:14:01.396Z,4.10
2023-04-11T20:16:41.235Z,3.77
2023-04-11T20:19:12.934Z,3.37
2023-04-11T20:21:43.070Z,3.97
2023-04-11T20:24:16.687Z,4.57
2023-04-11T20:26:47.774Z,3.97
2023-04-11T20:29:20.991Z,4.10
2023-04-11T20:31:55.224Z,4.47
2023-04-11T20:34:24.745Z,3.63
2023-04-11T20:37:00.913Z,4.83
2023-04-11T20:39:30.137Z,3.50
2023-04-11T20:41:57.541Z,4.27
2023-04-11T20:44:26.467Z,4.03
2023-04-11T20:46:54.523Z,4.40
2023-04-11T20:49:21.812Z,4.50
2023-04-11T20:51:49.795Z,4.33
2023-04-11T20:54:17.013Z,4.63
2023-04-11T20:56:44.248Z,4.47
2023-04-11T20:59:12.509Z,5.03
2023-04-11T21:01:40.599Z,4.30
2023-04-11T21:04:09.946Z,4.57
2023-04-11T21:06:37.314Z,4.87
2023-04-11T21:09:05.585Z,4.53
2023-04-11T21:11:33.369Z,4.53
2023-04-11T21:14:00.683Z,4.87
2023-04-11T21:16:28.076Z,5.03
2023-04-11T21:18:55.389Z,5.00
2023-04-11T21:21:22.576Z,4.23
2023-04-11T21:23:49.837Z,4.53
2023-04-11T21:26:16.977Z,4.33
2023-04-11T21:28:44.202Z,4.60
2023-04-11T21:31:11.457Z,4.53
2023-04-11T21:33:38.635Z,4.77
2023-04-11T21:36:06.225Z,4.00
2023-04-11T21:38:33.435Z,4.50
2023-04-11T21:41:01.366Z,4.67
2023-04-11T21:43:28.733Z,4.13
2023-04-11T21:45:55.921Z,4.60
2023-04-11T21:48:23.213Z,4.97
2023-04-11T21:50:50.531Z,5.07
2023-04-11T21:53:18.265Z,5.27
2023-04-11T21:55:46.768Z,4.80
2023-04-11T21:58:27.918Z,4.70
2023-04-11T22:00:56.651Z,4.60
2023-04-11T22:03:24.332Z,4.47
2023-04-11T22:05:52.551Z,5.10
2023-04-11T22:08:22.993Z,5.83
2023-04-11T22:10:52.550Z,11.57
2023-04-11T22:13:20.730Z,6.53
2023-04-11T22:15:48.961Z,5.47
2023-04-11T22:18:16.225Z,5.27
2023-04-11T22:20:44.311Z,4.40
2023-04-11T22:23:12.793Z,4.77
2023-04-11T22:25:43.525Z,5.03
2023-04-11T22:28:20.875Z,4.97
2023-04-11T22:30:48.104Z,5.13
2023-04-11T22:33:15.827Z,5.23
2023-04-11T22:35:50.646Z,5.37
2023-04-11T22:38:17.964Z,4.10
2023-04-11T22:40:45.229Z,4.23
2023-04-11T22:43:12.418Z,4.10
2023-04-11T22:45:40.074Z,4.20
2023-04-11T22:48:07.458Z,4.00
2023-04-11T22:50:38.963Z,4.43
2023-04-11T22:53:09.286Z,4.07
2023-04-11T22:55:36.919Z,3.83
2023-04-11T22:58:04.176Z,3.60
2023-04-11T23:00:38.225Z,3.87
2023-04-11T23:03:07.358Z,3.83
2023-04-11T23:05:35.297Z,3.90
2023-04-11T23:08:02.485Z,3.90
2023-04-11T23:10:29.676Z,3.77
2023-04-11T23:12:56.875Z,3.63
2023-04-11T23:15:24.089Z,3.97
2023-04-11T23:17:51.327Z,3.63
2023-04-11T23:20:22.056Z,3.40
2023-04-11T23:22:49.251Z,3.80
2023-04-11T23:25:16.999Z,3.63
2023-04-11T23:27:45.071Z,3.83
2023-04-11T23:30:13.028Z,3.57
2023-04-11T23:32:40.882Z,3.77
2023-04-11T23:35:08.586Z,3.63
2023-04-11T23:37:35.803Z,3.87
2023-04-11T23:40:10.844Z,3.73
2023-04-11T23:42:39.094Z,4.23
2023-04-11T23:45:07.183Z,4.10
2023-04-11T23:47:34.651Z,3.80
2023-04-11T23:50:02.825Z,4.00
2023-04-11T23:52:30.490Z,3.20
2023-04-11T23:54:58.473Z,3.80
2023-04-11T23:57:25.625Z,4.10
2023-04-11T23:59:52.837Z,4.10
